Terminal Aerodrome Forecast
Issued by NWS Shreveport, LA

Home | Current Version | Previous Version | Text Only | Print | Product List | Glossary On
Versions: 1 2 3 4 5 6 7 8 9 10 11 12 13 14 15 16 17 18 19 20 21 22 23
227
FTUS44 KSHV 291004 AAA
TAFTXK
TAF AMD
KTXK 291004Z 2910/3006 17004KT 4SM BR SCT040 OVC250
      TEMPO 2910/2913 3SM BR BKN040 OVC250
     FM291300 VRB03KT 5SM BR BKN025 BKN035 OVC150
      TEMPO 2913/2915 4SM BR SCT035 BKN040 OVC150
     FM291600 VRB03KT P6SM BKN045 OVC150
     FM292100 27004KT P6SM SCT045 OVC150=

USA.gov is the U.S. government's official web portal to all federal, state and local government web resources and services.